Butts AAF (Fort Carson) Air Field
KFCS : now visible

Airfield :











YOU CAN JOIN US ON...

 
LOGIN :

Register | Disclaimer

   EN    FR    IT 

 









Legend :    VFR   Marginal VFR   IFR   Intensive IFR   Very Intensive IFR
Visi :
Ceiling :
>= 8 km
>= 3000ft
5 to 8 km
1000 to 3000 ft
1500m to 5 km
500 to 1000 ft
800 to 1500m
200 to 500 ft
< 800m
< 200 ft
Symbols :   Thunderstorms  Fog  Heavy snow  Heavy precipitations  Wind > 20 kt







- Airport Elevation : 5838 ft


KFCS - Butts AAF (Fort Carson) Air Field

CURRENT METAR :
  • 230013Z AUTO 08011G17KT 10SM VCTS SCT047 BKN060 BKN090 22/06 A3003 RMK AO2 RAE13 TSE01 PRESFR SLP123 $

EXPIRED METARs :
  • 222358Z AUTO 06015KT 5SM TSRA OVC050 21/07 A3007 RMK AO2 PK WND 26042/08 DZB08E09RAB09 TSB04 PRESFR SLP142 P0035 60035 T02060065 10313 20161 53017 $
  • 222338Z AUTO 24020G28KT 2 1/2SM +TSRA BKN060 OVC090 16/10 A3009 RMK AO2 VIS 1 3/4V2 1/2 DZB08E09RAB09 TSB04 PRESRR SLP158 $
  • 222308Z 26032G42KT 10SM TS -DZ BKN085 25/07 A3003 RMK AO2A DZB08 TSB04 SLP118 $
  • 222258Z 33009KT 10SM VCTS FEW090 SCT140 26/07 A3003 RMK AO2A SLP111 T02630068 $
  • 222158Z AUTO 04003KT 10SM FEW120 28/07 A3001 RMK AO2 LTG DSNT SW SLP101 T02810073 $
  • 222058Z AUTO 16012G21KT 10SM FEW210 31/07 A3002 RMK AO2 SLP099 T03070072 57016 $

TAF TAF KFCS
Valid from the 22 at 21:00 until the 24 at 03:00 UTC


222102Z 2221/2403 16012KT 9999 VCTS SCT100CB QNH3000INS
TEMPO 2221/2222 VRB15G25KT -TSRA BKN080CB
TEMPO 2222/2301 VRB25G35KT -TSRAGR BKN080CB
BECMG 2302/2303 VRB06KT 9999 NSW SCT100 QNH3007INS
BECMG 2315/2316 30009KT 9999 SCT120 QNH3008INS
BECMG 2317/2318 15009KT 9999 SCT100 QNH3005INS
BECMG 2320/2321 16009KT 9999 BKN100 QNH3005INS
TEMPO 2321/2324 VRB15G25KT VCTS BKN080CB
BECMG 2402/2403 VRB06KT 9999 SCT090 QNH3011INS TX32/2222Z TN13/2311Z
No reported NOTAMs for that airfield.



MET'MAP, your aeronautical weather chart ! - Copyright ORBIFLY December 2007 - Disclaimer

ORBIFLY MET'MAP TEAM :

Programming & Development : Alexandra Zaïnal
Concept & Development : Baudouin d'Aumeries
Co-Development & Prog : Marc-Olivier Méhu
Technical & hardware support : Manuel Goepfert

Contact : metmap@orbifly.com




SOURCES & CREDITS :

   NOAA       Earth
Advisory